sensor_id;sensor_type;location;lat;lon;timestamp;pressure;altitude;pressure_sealevel;temperature;humidity
44309;BME280;30022;55.846;37.340;2023-04-23T00:00:06;46491.81;;;-143.51;46.22
44309;BME280;30022;55.846;37.340;2023-04-23T00:02:38;46511.56;;;-143.51;47.03
44309;BME280;30022;55.846;37.340;2023-04-23T00:05:04;46523.41;;;-143.51;47.24
44309;BME280;30022;55.846;37.340;2023-04-23T00:07:33;46523.41;;;-143.51;46.84
44309;BME280;30022;55.846;37.340;2023-04-23T00:09:59;46515.50;;;-143.51;46.77
44309;BME280;30022;55.846;37.340;2023-04-23T00:12:25;46531.31;;;-143.51;47.55
44309;BME280;30022;55.846;37.340;2023-04-23T00:14:51;46511.56;;;-143.51;47.68
44309;BME280;30022;55.846;37.340;2023-04-23T00:17:17;46495.75;;;-143.51;50.65
44309;BME280;30022;55.846;37.340;2023-04-23T00:19:42;46499.72;;;-143.51;48.76
44309;BME280;30022;55.846;37.340;2023-04-23T00:22:08;46519.44;;;-143.51;49.18
44309;BME280;30022;55.846;37.340;2023-04-23T00:24:34;46503.66;;;-143.51;50.47
44309;BME280;30022;55.846;37.340;2023-04-23T00:27:03;46525.38;;;-143.51;50.28
44309;BME280;30022;55.846;37.340;2023-04-23T00:29:29;46535.25;;;-143.51;49.30
44309;BME280;30022;55.846;37.340;2023-04-23T00:31:54;46535.25;;;-143.51;49.66
44309;BME280;30022;55.846;37.340;2023-04-23T00:34:20;46523.41;;;-143.51;49.10
44309;BME280;30022;55.846;37.340;2023-04-23T00:36:46;46523.41;;;-143.51;49.90
44309;BME280;30022;55.846;37.340;2023-04-23T00:39:12;46525.38;;;-143.51;50.45
44309;BME280;30022;55.846;37.340;2023-04-23T00:41:38;46511.56;;;-143.51;50.68
44309;BME280;30022;55.846;37.340;2023-04-23T00:44:05;46507.59;;;-143.51;49.02
44309;BME280;30022;55.846;37.340;2023-04-23T00:46:31;46513.53;;;-143.51;49.52
44309;BME280;30022;55.846;37.340;2023-04-23T00:48:57;46525.38;;;-143.51;49.98
44309;BME280;30022;55.846;37.340;2023-04-23T00:51:24;46517.47;;;-143.51;50.05
44309;BME280;30022;55.846;37.340;2023-04-23T00:53:50;46519.44;;;-143.51;49.83
44309;BME280;30022;55.846;37.340;2023-04-23T00:56:16;46527.34;;;-143.51;49.35
44309;BME280;30022;55.846;37.340;2023-04-23T00:58:42;46539.19;;;-143.51;49.89
44309;BME280;30022;55.846;37.340;2023-04-23T01:01:08;46531.31;;;-143.51;49.66
44309;BME280;30022;55.846;37.340;2023-04-23T01:03:34;46527.34;;;-143.51;48.84
44309;BME280;30022;55.846;37.340;2023-04-23T01:06:01;46521.44;;;-143.51;49.67
44309;BME280;30022;55.846;37.340;2023-04-23T01:08:27;46501.69;;;-143.51;50.81
44309;BME280;30022;55.846;37.340;2023-04-23T01:10:53;46529.31;;;-143.51;49.82
44309;BME280;30022;55.846;37.340;2023-04-23T01:13:19;46533.28;;;-143.51;52.21
44309;BME280;30022;55.846;37.340;2023-04-23T01:15:44;46521.44;;;-143.51;51.09
44309;BME280;30022;55.846;37.340;2023-04-23T01:18:10;46533.28;;;-143.51;51.50
44309;BME280;30022;55.846;37.340;2023-04-23T01:20:37;46497.72;;;-143.51;51.83
44309;BME280;30022;55.846;37.340;2023-04-23T01:23:04;46501.69;;;-143.51;50.55
44309;BME280;30022;55.846;37.340;2023-04-23T01:25:30;46533.28;;;-143.51;50.72
44309;BME280;30022;55.846;37.340;2023-04-23T01:27:59;46523.41;;;-143.51;50.72
44309;BME280;30022;55.846;37.340;2023-04-23T01:30:26;46525.38;;;-143.51;51.50
44309;BME280;30022;55.846;37.340;2023-04-23T01:32:55;46503.66;;;-143.51;50.70
44309;BME280;30022;55.846;37.340;2023-04-23T01:35:21;46541.19;;;-143.51;50.37
44309;BME280;30022;55.846;37.340;2023-04-23T01:37:48;46517.47;;;-143.51;52.63
44309;BME280;30022;55.846;37.340;2023-04-23T01:40:17;46535.25;;;-143.51;50.80
44309;BME280;30022;55.846;37.340;2023-04-23T01:42:43;46515.50;;;-143.51;51.58
44309;BME280;30022;55.846;37.340;2023-04-23T01:45:09;46543.16;;;-143.51;52.96
44309;BME280;30022;55.846;37.340;2023-04-23T01:47:35;46515.50;;;-143.51;52.27
44309;BME280;30022;55.846;37.340;2023-04-23T01:50:00;46553.03;;;-143.51;52.60
44309;BME280;30022;55.846;37.340;2023-04-23T01:52:28;46547.09;;;-143.51;51.66
44309;BME280;30022;55.846;37.340;2023-04-23T01:54:54;46523.41;;;-143.51;51.38
44309;BME280;30022;55.846;37.340;2023-04-23T01:57:19;46523.41;;;-143.51;51.18
44309;BME280;30022;55.846;37.340;2023-04-23T01:59:48;46527.34;;;-143.51;51.20
44309;BME280;30022;55.846;37.340;2023-04-23T02:02:14;46551.06;;;-143.51;51.32
44309;BME280;30022;55.846;37.340;2023-04-23T02:04:40;46509.56;;;-143.51;50.82
44309;BME280;30022;55.846;37.340;2023-04-23T02:07:08;46523.41;;;-143.51;50.73
44309;BME280;30022;55.846;37.340;2023-04-23T02:09:34;46539.19;;;-143.51;51.16
44309;BME280;30022;55.846;37.340;2023-04-23T02:12:00;46511.56;;;-143.51;51.01
44309;BME280;30022;55.846;37.340;2023-04-23T02:14:26;46535.25;;;-143.51;51.19
44309;BME280;30022;55.846;37.340;2023-04-23T02:16:52;46505.63;;;-143.51;50.94
44309;BME280;30022;55.846;37.340;2023-04-23T02:19:18;46551.06;;;-143.51;51.55
44309;BME280;30022;55.846;37.340;2023-04-23T02:21:44;46531.31;;;-143.51;51.81
44309;BME280;30022;55.846;37.340;2023-04-23T02:24:09;46537.22;;;-143.51;51.06
44309;BME280;30022;55.846;37.340;2023-04-23T02:26:35;46521.44;;;-143.51;51.07
44309;BME280;30022;55.846;37.340;2023-04-23T02:29:01;46539.19;;;-143.51;53.02
44309;BME280;30022;55.846;37.340;2023-04-23T02:31:26;46507.59;;;-143.51;51.89
44309;BME280;30022;55.846;37.340;2023-04-23T02:33:53;46521.44;;;-143.51;51.57
44309;BME280;30022;55.846;37.340;2023-04-23T02:36:19;46558.94;;;-143.51;51.86
44309;BME280;30022;55.846;37.340;2023-04-23T02:38:45;46539.19;;;-143.51;51.28
44309;BME280;30022;55.846;37.340;2023-04-23T02:41:12;46531.31;;;-143.51;51.84
44309;BME280;30022;55.846;37.340;2023-04-23T02:43:38;46525.38;;;-143.51;52.05
44309;BME280;30022;55.846;37.340;2023-04-23T02:46:03;46545.13;;;-143.51;51.82
44309;BME280;30022;55.846;37.340;2023-04-23T02:48:36;46533.28;;;-143.51;51.73
44309;BME280;30022;55.846;37.340;2023-04-23T02:51:02;46547.09;;;-143.51;51.78
44309;BME280;30022;55.846;37.340;2023-04-23T02:53:28;46521.44;;;-143.51;51.52
44309;BME280;30022;55.846;37.340;2023-04-23T02:55:53;46525.38;;;-143.51;51.66
44309;BME280;30022;55.846;37.340;2023-04-23T02:58:19;46533.28;;;-143.51;51.83
44309;BME280;30022;55.846;37.340;2023-04-23T03:00:47;46562.91;;;-143.51;52.17
44309;BME280;30022;55.846;37.340;2023-04-23T03:03:13;46547.09;;;-143.51;52.32
44309;BME280;30022;55.846;37.340;2023-04-23T03:05:38;46517.47;;;-143.51;52.14
44309;BME280;30022;55.846;37.340;2023-04-23T03:08:04;46533.28;;;-143.51;51.98
44309;BME280;30022;55.846;37.340;2023-04-23T03:10:30;46531.31;;;-143.51;51.65
44309;BME280;30022;55.846;37.340;2023-04-23T03:12:55;46543.16;;;-143.51;51.91
44309;BME280;30022;55.846;37.340;2023-04-23T03:15:21;46549.06;;;-143.51;51.91
44309;BME280;30022;55.846;37.340;2023-04-23T03:17:47;46543.16;;;-143.51;51.79
44309;BME280;30022;55.846;37.340;2023-04-23T03:20:13;46560.91;;;-143.51;52.01
44309;BME280;30022;55.846;37.340;2023-04-23T03:22:40;46523.41;;;-143.51;51.47
44309;BME280;30022;55.846;37.340;2023-04-23T03:25:06;46547.09;;;-143.51;51.50
44309;BME280;30022;55.846;37.340;2023-04-23T03:27:31;46570.78;;;-143.51;51.52
44309;BME280;30022;55.846;37.340;2023-04-23T03:29:57;46543.16;;;-143.51;51.63
44309;BME280;30022;55.846;37.340;2023-04-23T03:32:23;46551.06;;;-143.51;51.86
44309;BME280;30022;55.846;37.340;2023-04-23T03:34:48;46535.25;;;-143.51;51.92
44309;BME280;30022;55.846;37.340;2023-04-23T03:37:15;46566.84;;;-143.51;52.06
44309;BME280;30022;55.846;37.340;2023-04-23T03:39:41;46525.38;;;-143.51;52.16
44309;BME280;30022;55.846;37.340;2023-04-23T03:42:07;46531.31;;;-143.51;52.18
44309;BME280;30022;55.846;37.340;2023-04-23T03:44:32;46541.19;;;-143.51;51.98
44309;BME280;30022;55.846;37.340;2023-04-23T03:46:58;46558.94;;;-143.51;52.41
44309;BME280;30022;55.846;37.340;2023-04-23T03:49:25;46535.25;;;-143.51;52.31
44309;BME280;30022;55.846;37.340;2023-04-23T03:51:50;46543.16;;;-143.51;52.54
44309;BME280;30022;55.846;37.340;2023-04-23T03:54:17;46555.00;;;-143.51;52.13
44309;BME280;30022;55.846;37.340;2023-04-23T03:57:03;46547.09;;;-143.51;52.05
44309;BME280;30022;55.846;37.340;2023-04-23T03:59:34;46574.75;;;-143.51;52.06
44309;BME280;30022;55.846;37.340;2023-04-23T04:02:00;46562.91;;;-143.51;53.18
44309;BME280;30022;55.846;37.340;2023-04-23T04:04:28;46541.19;;;-143.51;52.74
44309;BME280;30022;55.846;37.340;2023-04-23T04:06:57;46555.00;;;-143.51;52.40
44309;BME280;30022;55.846;37.340;2023-04-23T04:09:26;46543.16;;;-143.51;52.45
44309;BME280;30022;55.846;37.340;2023-04-23T04:11:52;46549.06;;;-143.51;52.56
44309;BME280;30022;55.846;37.340;2023-04-23T04:14:18;46588.56;;;-143.51;52.59
44309;BME280;30022;55.846;37.340;2023-04-23T04:16:44;46590.53;;;-143.51;52.15
44309;BME280;30022;55.846;37.340;2023-04-23T04:19:09;46572.78;;;-143.51;52.10
44309;BME280;30022;55.846;37.340;2023-04-23T04:21:35;46547.09;;;-143.51;52.57
44309;BME280;30022;55.846;37.340;2023-04-23T04:24:01;46555.00;;;-143.51;52.23
44309;BME280;30022;55.846;37.340;2023-04-23T04:26:27;46566.84;;;-143.51;52.36
44309;BME280;30022;55.846;37.340;2023-04-23T04:28:52;46572.78;;;-143.51;51.63
44309;BME280;30022;55.846;37.340;2023-04-23T04:31:18;46558.94;;;-143.51;51.19
44309;BME280;30022;55.846;37.340;2023-04-23T04:33:46;46566.84;;;-143.51;51.85
44309;BME280;30022;55.846;37.340;2023-04-23T04:36:12;46572.78;;;-143.51;52.25
44309;BME280;30022;55.846;37.340;2023-04-23T04:38:38;46584.63;;;-143.51;52.63
44309;BME280;30022;55.846;37.340;2023-04-23T04:41:03;46568.81;;;-143.51;52.53
44309;BME280;30022;55.846;37.340;2023-04-23T04:43:29;46584.63;;;-143.51;53.04
44309;BME280;30022;55.846;37.340;2023-04-23T04:45:56;46594.50;;;-143.51;52.17
44309;BME280;30022;55.846;37.340;2023-04-23T04:48:23;46574.75;;;-143.51;51.60
44309;BME280;30022;55.846;37.340;2023-04-23T04:50:49;46582.66;;;-143.51;51.50
44309;BME280;30022;55.846;37.340;2023-04-23T04:53:15;46588.56;;;-143.51;51.76
44309;BME280;30022;55.846;37.340;2023-04-23T04:55:40;46590.53;;;-143.51;51.57
44309;BME280;30022;55.846;37.340;2023-04-23T04:58:06;46600.41;;;-143.51;51.41
44309;BME280;30022;55.846;37.340;2023-04-23T05:00:32;46594.50;;;-143.51;51.24
44309;BME280;30022;55.846;37.340;2023-04-23T05:02:58;46616.22;;;-143.51;51.39
44309;BME280;30022;55.846;37.340;2023-04-23T05:05:24;46588.56;;;-143.51;51.24
44309;BME280;30022;55.846;37.340;2023-04-23T05:07:50;46600.41;;;-143.51;51.75
44309;BME280;30022;55.846;37.340;2023-04-23T05:10:18;46594.50;;;-143.51;51.36
44309;BME280;30022;55.846;37.340;2023-04-23T05:12:45;46630.03;;;-143.51;51.26
44309;BME280;30022;55.846;37.340;2023-04-23T05:15:12;46618.19;;;-143.51;51.04
44309;BME280;30022;55.846;37.340;2023-04-23T05:17:39;46628.06;;;-143.51;51.07
44309;BME280;30022;55.846;37.340;2023-04-23T05:20:05;46639.91;;;-143.51;50.84
44309;BME280;30022;55.846;37.340;2023-04-23T05:22:30;46630.03;;;-143.51;50.39
44309;BME280;30022;55.846;37.340;2023-04-23T05:24:56;46624.13;;;-143.51;50.39
44309;BME280;30022;55.846;37.340;2023-04-23T05:27:22;46626.09;;;-143.51;50.39
44309;BME280;30022;55.846;37.340;2023-04-23T05:29:48;46632.03;;;-143.51;50.18
44309;BME280;30022;55.846;37.340;2023-04-23T05:32:14;46643.88;;;-143.51;50.08
44309;BME280;30022;55.846;37.340;2023-04-23T05:34:40;46647.81;;;-143.51;49.92
44309;BME280;30022;55.846;37.340;2023-04-23T05:37:06;46622.16;;;-143.51;50.04
44309;BME280;30022;55.846;37.340;2023-04-23T05:39:31;46635.97;;;-143.51;49.92
44309;BME280;30022;55.846;37.340;2023-04-23T05:41:57;46639.91;;;-143.51;49.77
44309;BME280;30022;55.846;37.340;2023-04-23T05:44:23;46610.28;;;-143.51;49.77
44309;BME280;30022;55.846;37.340;2023-04-23T05:46:48;46622.16;;;-143.51;49.57
44309;BME280;30022;55.846;37.340;2023-04-23T05:49:14;46616.22;;;-143.51;49.54
44309;BME280;30022;55.846;37.340;2023-04-23T05:51:40;46641.88;;;-143.51;49.54
44309;BME280;30022;55.846;37.340;2023-04-23T05:54:06;46635.97;;;-143.51;49.36
44309;BME280;30022;55.846;37.340;2023-04-23T05:56:31;46639.91;;;-143.51;49.31
44309;BME280;30022;55.846;37.340;2023-04-23T05:58:58;46653.75;;;-143.51;49.25
44309;BME280;30022;55.846;37.340;2023-04-23T06:01:23;46645.84;;;-143.51;48.94
44309;BME280;30022;55.846;37.340;2023-04-23T06:03:49;46649.78;;;-143.51;48.91
44309;BME280;30022;55.846;37.340;2023-04-23T06:06:15;46653.75;;;-143.51;48.81
44309;BME280;30022;55.846;37.340;2023-04-23T06:08:41;46653.75;;;-143.51;48.78
44309;BME280;30022;55.846;37.340;2023-04-23T06:11:06;46675.47;;;-143.51;48.62
44309;BME280;30022;55.846;37.340;2023-04-23T06:13:32;46673.50;;;-143.51;48.72
44309;BME280;30022;55.846;37.340;2023-04-23T06:16:01;46641.88;;;-143.51;48.79
44309;BME280;30022;55.846;37.340;2023-04-23T06:18:26;46635.97;;;-143.51;48.91
44309;BME280;30022;55.846;37.340;2023-04-23T06:20:52;46667.56;;;-143.51;48.78
44309;BME280;30022;55.846;37.340;2023-04-23T06:23:18;46655.72;;;-143.51;48.55
44309;BME280;30022;55.846;37.340;2023-04-23T06:25:43;46647.81;;;-143.51;48.41
44309;BME280;30022;55.846;37.340;2023-04-23T06:28:09;46655.72;;;-143.51;48.65
44309;BME280;30022;55.846;37.340;2023-04-23T06:30:47;46661.63;;;-143.51;48.73
44309;BME280;30022;55.846;37.340;2023-04-23T06:33:12;46657.69;;;-143.51;48.84
44309;BME280;30022;55.846;37.340;2023-04-23T06:35:41;46665.59;;;-143.51;48.69
44309;BME280;30022;55.846;37.340;2023-04-23T06:38:06;46655.72;;;-143.51;49.10
44309;BME280;30022;55.846;37.340;2023-04-23T06:40:32;46639.91;;;-143.51;49.46
44309;BME280;30022;55.846;37.340;2023-04-23T06:42:58;46661.63;;;-143.51;49.57
44309;BME280;30022;55.846;37.340;2023-04-23T06:45:42;46651.75;;;-143.51;49.94
44309;BME280;30022;55.846;37.340;2023-04-23T06:48:08;46647.81;;;-143.51;50.05
44309;BME280;30022;55.846;37.340;2023-04-23T06:50:34;46653.75;;;-143.51;50.07
44309;BME280;30022;55.846;37.340;2023-04-23T06:52:59;46671.50;;;-143.51;50.19
44309;BME280;30022;55.846;37.340;2023-04-23T06:55:25;46663.63;;;-143.51;50.28
44309;BME280;30022;55.846;37.340;2023-04-23T06:57:51;46643.88;;;-143.51;50.18
44309;BME280;30022;55.846;37.340;2023-04-23T07:00:17;46632.03;;;-143.51;50.27
44309;BME280;30022;55.846;37.340;2023-04-23T07:02:45;46643.88;;;-143.51;50.54
44309;BME280;30022;55.846;37.340;2023-04-23T07:05:11;46667.56;;;-143.51;50.33
44309;BME280;30022;55.846;37.340;2023-04-23T07:07:37;46655.72;;;-143.51;50.29
44309;BME280;30022;55.846;37.340;2023-04-23T07:10:06;46661.63;;;-143.51;50.23
44309;BME280;30022;55.846;37.340;2023-04-23T07:12:31;46661.63;;;-143.51;50.23
44309;BME280;30022;55.846;37.340;2023-04-23T07:14:57;46649.78;;;-143.51;50.13
44309;BME280;30022;55.846;37.340;2023-04-23T07:17:23;46673.50;;;-143.51;49.98
44309;BME280;30022;55.846;37.340;2023-04-23T07:19:48;46683.38;;;-143.51;49.73
44309;BME280;30022;55.846;37.340;2023-04-23T07:22:14;46655.72;;;-143.51;49.80
44309;BME280;30022;55.846;37.340;2023-04-23T07:24:40;46679.41;;;-143.51;49.84
44309;BME280;30022;55.846;37.340;2023-04-23T07:27:06;46661.63;;;-143.51;49.69
44309;BME280;30022;55.846;37.340;2023-04-23T07:29:32;46689.28;;;-143.51;49.69
44309;BME280;30022;55.846;37.340;2023-04-23T07:31:57;46663.63;;;-143.51;49.72
44309;BME280;30022;55.846;37.340;2023-04-23T07:34:23;46663.63;;;-143.51;49.62
44309;BME280;30022;55.846;37.340;2023-04-23T07:36:49;46699.16;;;-143.51;49.56
44309;BME280;30022;55.846;37.340;2023-04-23T07:39:16;46681.38;;;-143.51;49.10
44309;BME280;30022;55.846;37.340;2023-04-23T07:41:42;46677.44;;;-143.51;49.50
44309;BME280;30022;55.846;37.340;2023-04-23T07:44:08;46693.25;;;-143.51;48.81
44309;BME280;30022;55.846;37.340;2023-04-23T07:46:33;46699.16;;;-143.51;47.43
44309;BME280;30022;55.846;37.340;2023-04-23T07:48:59;46681.38;;;-143.51;47.98
44309;BME280;30022;55.846;37.340;2023-04-23T07:51:25;46683.38;;;-143.51;47.71
44309;BME280;30022;55.846;37.340;2023-04-23T07:53:51;46691.25;;;-143.51;47.98
44309;BME280;30022;55.846;37.340;2023-04-23T07:56:19;46691.25;;;-143.51;46.33
44309;BME280;30022;55.846;37.340;2023-04-23T07:58:45;46699.16;;;-143.51;46.47
44309;BME280;30022;55.846;37.340;2023-04-23T08:01:11;46695.22;;;-143.51;46.18
44309;BME280;30022;55.846;37.340;2023-04-23T08:03:37;46714.97;;;-143.51;45.95
44309;BME280;30022;55.846;37.340;2023-04-23T08:06:03;46701.13;;;-143.51;45.49
44309;BME280;30022;55.846;37.340;2023-04-23T08:08:29;46713.00;;;-143.51;45.62
44309;BME280;30022;55.846;37.340;2023-04-23T08:10:55;46732.75;;;-143.51;44.75
44309;BME280;30022;55.846;37.340;2023-04-23T08:13:20;46724.84;;;-143.51;42.73
44309;BME280;30022;55.846;37.340;2023-04-23T08:15:46;46736.69;;;-143.51;40.12
44309;BME280;30022;55.846;37.340;2023-04-23T08:18:13;46716.94;;;-143.51;38.05
44309;BME280;30022;55.846;37.340;2023-04-23T08:20:39;46714.97;;;-143.51;36.31
44309;BME280;30022;55.846;37.340;2023-04-23T08:23:05;46689.28;;;-143.51;35.29
44309;BME280;30022;55.846;37.340;2023-04-23T08:25:31;46713.00;;;-143.51;36.15
44309;BME280;30022;55.846;37.340;2023-04-23T08:27:57;46695.22;;;-143.51;35.06
44309;BME280;30022;55.846;37.340;2023-04-23T08:30:24;46675.47;;;-143.51;35.07
44309;BME280;30022;55.846;37.340;2023-04-23T08:32:50;46665.59;;;-143.51;35.37
44309;BME280;30022;55.846;37.340;2023-04-23T08:35:18;46671.50;;;-143.51;35.36
44309;BME280;30022;55.846;37.340;2023-04-23T08:37:44;46693.25;;;-143.51;35.27
44309;BME280;30022;55.846;37.340;2023-04-23T08:40:09;46671.50;;;-143.51;35.10
44309;BME280;30022;55.846;37.340;2023-04-23T08:42:48;46683.38;;;-143.51;35.44
44309;BME280;30022;55.846;37.340;2023-04-23T08:45:15;46697.19;;;-143.51;35.55
44309;BME280;30022;55.846;37.340;2023-04-23T08:47:41;46689.28;;;-143.51;35.55
44309;BME280;30022;55.846;37.340;2023-04-23T08:50:10;46669.53;;;-143.51;35.56
44309;BME280;30022;55.846;37.340;2023-04-23T08:52:38;46705.09;;;-143.51;35.41
44309;BME280;30022;55.846;37.340;2023-04-23T08:55:06;46683.38;;;-143.51;35.85
44309;BME280;30022;55.846;37.340;2023-04-23T08:57:35;46713.00;;;-143.51;35.48
44309;BME280;30022;55.846;37.340;2023-04-23T09:00:02;46730.75;;;-143.51;35.30
44309;BME280;30022;55.846;37.340;2023-04-23T09:02:30;46716.94;;;-143.51;35.60
44309;BME280;30022;55.846;37.340;2023-04-23T09:04:56;46718.91;;;-143.51;35.04
44309;BME280;30022;55.846;37.340;2023-04-23T09:07:21;46713.00;;;-143.51;34.79
44309;BME280;30022;55.846;37.340;2023-04-23T09:09:47;46713.00;;;-143.51;34.36
44309;BME280;30022;55.846;37.340;2023-04-23T09:12:13;46736.69;;;-143.51;34.82
44309;BME280;30022;55.846;37.340;2023-04-23T09:14:39;46754.47;;;-143.51;34.66
44309;BME280;30022;55.846;37.340;2023-04-23T09:17:04;46740.63;;;-143.51;34.62
44309;BME280;30022;55.846;37.340;2023-04-23T09:19:31;46734.72;;;-143.51;33.44
44309;BME280;30022;55.846;37.340;2023-04-23T09:21:57;46730.75;;;-143.51;33.93
44309;BME280;30022;55.846;37.340;2023-04-23T09:24:23;46772.22;;;-143.51;34.12
44309;BME280;30022;55.846;37.340;2023-04-23T09:26:50;46784.09;;;-143.51;34.36
44309;BME280;30022;55.846;37.340;2023-04-23T09:29:17;46788.03;;;-143.51;34.53
44309;BME280;30022;55.846;37.340;2023-04-23T09:31:44;46784.09;;;-143.51;34.52
44309;BME280;30022;55.846;37.340;2023-04-23T09:34:10;46791.97;;;-143.51;34.31
44309;BME280;30022;55.846;37.340;2023-04-23T09:36:36;46784.09;;;-143.51;32.51
44309;BME280;30022;55.846;37.340;2023-04-23T09:39:01;46776.19;;;-143.51;32.97
44309;BME280;30022;55.846;37.340;2023-04-23T09:41:27;46752.47;;;-143.51;32.83
44309;BME280;30022;55.846;37.340;2023-04-23T09:43:53;46734.72;;;-143.51;32.85
44309;BME280;30022;55.846;37.340;2023-04-23T09:46:31;46732.75;;;-143.51;33.09
44309;BME280;30022;55.846;37.340;2023-04-23T09:48:57;46744.59;;;-143.51;33.01
44309;BME280;30022;55.846;37.340;2023-04-23T09:51:23;46752.47;;;-143.51;32.92
44309;BME280;30022;55.846;37.340;2023-04-23T09:53:49;46734.72;;;-143.51;33.06
44309;BME280;30022;55.846;37.340;2023-04-23T09:56:15;46732.75;;;-143.51;32.91
44309;BME280;30022;55.846;37.340;2023-04-23T09:58:40;46754.47;;;-143.51;33.09
44309;BME280;30022;55.846;37.340;2023-04-23T10:01:09;46742.59;;;-143.51;32.72
44309;BME280;30022;55.846;37.340;2023-04-23T10:03:35;46732.75;;;-143.51;32.85
44309;BME280;30022;55.846;37.340;2023-04-23T10:06:00;46724.84;;;-143.51;33.16
44309;BME280;30022;55.846;37.340;2023-04-23T10:08:26;46724.84;;;-143.51;32.95
44309;BME280;30022;55.846;37.340;2023-04-23T10:10:52;46707.06;;;-143.51;33.01
44309;BME280;30022;55.846;37.340;2023-04-23T10:13:17;46724.84;;;-143.51;32.93
44309;BME280;30022;55.846;37.340;2023-04-23T10:15:45;46709.03;;;-143.51;32.87
44309;BME280;30022;55.846;37.340;2023-04-23T10:18:11;46716.94;;;-143.51;32.56
44309;BME280;30022;55.846;37.340;2023-04-23T10:20:38;46703.13;;;-143.51;32.83
44309;BME280;30022;55.846;37.340;2023-04-23T10:23:04;46713.00;;;-143.51;32.86
44309;BME280;30022;55.846;37.340;2023-04-23T10:25:32;46693.25;;;-143.51;33.43
44309;BME280;30022;55.846;37.340;2023-04-23T10:27:59;46726.81;;;-143.51;33.06
44309;BME280;30022;55.846;37.340;2023-04-23T10:30:26;46718.91;;;-143.51;33.04
44309;BME280;30022;55.846;37.340;2023-04-23T10:32:52;46736.69;;;-143.51;33.14
44309;BME280;30022;55.846;37.340;2023-04-23T10:35:18;46720.88;;;-143.51;32.83
44309;BME280;30022;55.846;37.340;2023-04-23T10:37:44;46752.47;;;-143.51;32.77
44309;BME280;30022;55.846;37.340;2023-04-23T10:40:12;46716.94;;;-143.51;32.81
44309;BME280;30022;55.846;37.340;2023-04-23T10:42:38;46713.00;;;-143.51;32.41
44309;BME280;30022;55.846;37.340;2023-04-23T10:45:11;46734.72;;;-143.51;32.33
44309;BME280;30022;55.846;37.340;2023-04-23T10:47:38;46748.53;;;-143.51;32.30
44309;BME280;30022;55.846;37.340;2023-04-23T10:52:45;46748.53;;;-143.51;32.38
44309;BME280;30022;55.846;37.340;2023-04-23T10:55:16;46734.72;;;-143.51;31.88
44309;BME280;30022;55.846;37.340;2023-04-23T10:58:02;46716.94;;;-143.51;32.17
44309;BME280;30022;55.846;37.340;2023-04-23T11:00:48;46720.88;;;-143.51;32.10
44309;BME280;30022;55.846;37.340;2023-04-23T11:06:02;46752.47;;;-143.51;31.99
44309;BME280;30022;55.846;37.340;2023-04-23T11:08:28;46772.22;;;-143.51;31.95
44309;BME280;30022;55.846;37.340;2023-04-23T11:11:00;46776.19;;;-143.51;32.09
44309;BME280;30022;55.846;37.340;2023-04-23T11:13:26;46736.69;;;-143.51;31.41
44309;BME280;30022;55.846;37.340;2023-04-23T11:21:20;46756.44;;;-143.51;31.67
44309;BME280;30022;55.846;37.340;2023-04-23T11:23:46;46726.81;;;-143.51;31.33
44309;BME280;30022;55.846;37.340;2023-04-23T11:26:13;46746.56;;;-143.51;31.47
44309;BME280;30022;55.846;37.340;2023-04-23T11:28:39;46736.69;;;-143.51;31.51
44309;BME280;30022;55.846;37.340;2023-04-23T11:31:08;46736.69;;;-143.51;31.49
44309;BME280;30022;55.846;37.340;2023-04-23T11:33:33;46774.22;;;-143.51;30.93
44309;BME280;30022;55.846;37.340;2023-04-23T11:36:01;46748.53;;;-143.51;31.07
44309;BME280;30022;55.846;37.340;2023-04-23T11:38:31;46752.47;;;-143.51;31.14
44309;BME280;30022;55.846;37.340;2023-04-23T11:41:00;46740.63;;;-143.51;31.35
44309;BME280;30022;55.846;37.340;2023-04-23T11:43:26;46766.31;;;-143.51;31.54
44309;BME280;30022;55.846;37.340;2023-04-23T11:45:53;46754.47;;;-143.51;31.48
44309;BME280;30022;55.846;37.340;2023-04-23T11:48:19;46764.34;;;-143.51;30.86
44309;BME280;30022;55.846;37.340;2023-04-23T11:50:45;46760.38;;;-143.51;31.04
44309;BME280;30022;55.846;37.340;2023-04-23T11:53:11;46788.03;;;-143.51;30.84
44309;BME280;30022;55.846;37.340;2023-04-23T11:55:37;46780.13;;;-143.51;30.84
44309;BME280;30022;55.846;37.340;2023-04-23T11:58:03;46772.22;;;-143.51;31.06
44309;BME280;30022;55.846;37.340;2023-04-23T12:00:28;46760.38;;;-143.51;30.70
44309;BME280;30022;55.846;37.340;2023-04-23T12:05:26;46772.22;;;-143.51;31.20
44309;BME280;30022;55.846;37.340;2023-04-23T12:07:52;46758.41;;;-143.51;31.04
44309;BME280;30022;55.846;37.340;2023-04-23T12:10:20;46748.53;;;-143.51;31.14
44309;BME280;30022;55.846;37.340;2023-04-23T12:12:50;46766.31;;;-143.51;31.23
44309;BME280;30022;55.846;37.340;2023-04-23T12:15:15;46780.13;;;-143.51;31.33
44309;BME280;30022;55.846;37.340;2023-04-23T12:17:41;46772.22;;;-143.51;30.60
44309;BME280;30022;55.846;37.340;2023-04-23T12:20:14;46772.22;;;-143.51;31.02
44309;BME280;30022;55.846;37.340;2023-04-23T12:22:40;46744.59;;;-143.51;30.58
44309;BME280;30022;55.846;37.340;2023-04-23T12:25:06;46768.28;;;-143.51;30.84
44309;BME280;30022;55.846;37.340;2023-04-23T12:27:37;46774.22;;;-143.51;30.80
44309;BME280;30022;55.846;37.340;2023-04-23T12:30:03;46760.38;;;-143.51;30.53
44309;BME280;30022;55.846;37.340;2023-04-23T12:32:29;46772.22;;;-143.51;30.81
44309;BME280;30022;55.846;37.340;2023-04-23T12:34:57;46770.25;;;-143.51;30.96
44309;BME280;30022;55.846;37.340;2023-04-23T12:37:24;46776.19;;;-143.51;30.90
44309;BME280;30022;55.846;37.340;2023-04-23T12:39:51;46791.97;;;-143.51;30.67